Time;durP1;ratioP1;P1;durP2;ratioP2;P2;SDS_P1;SDS_P2;PMS_P1;PMS_P2;Temp;Humidity;BMP_temperature;BMP_pressure;BME280_temperature;BME280_humidity;BME280_pressure;Samples;Min_cycle;Max_cycle;Signal;HPM_P1;HPM_P2
2021/06/22 00:02:04;;;;;;;;;;;13.60;99.90;;;;;;5066688;28;20269;-83
2021/06/22 00:04:29;;;;;;;;;;;13.60;99.90;;;;;;5038660;28;20341;-82
2021/06/22 00:06:55;;;;;;;;;;;13.60;99.90;;;;;;5036509;28;20037;-83
2021/06/22 00:09:21;;;;;;;;;;;13.60;99.90;;;;;;5053697;28;20223;-83
2021/06/22 00:11:46;;;;;;;;;;;13.60;99.90;;;;;;5044671;28;19990;-81
2021/06/22 00:14:12;;;;;;;;;;;13.60;99.90;;;;;;5036919;28;19931;-83
2021/06/22 00:16:37;;;;;;;;;;;13.60;99.90;;;;;;5077013;28;19963;-82
2021/06/22 00:19:03;;;;;;;;;;;13.60;99.90;;;;;;5054212;28;19912;-84
2021/06/22 00:21:28;;;;;;;;;;;13.50;99.90;;;;;;5033362;28;20351;-83
2021/06/22 00:23:54;;;;;;;;;;;13.50;99.90;;;;;;5034883;28;19917;-83
2021/06/22 00:26:19;;;;;;;;;;;13.50;99.90;;;;;;5046184;28;19978;-83
2021/06/22 00:28:45;;;;;;;;;;;13.50;99.90;;;;;;5032971;28;19956;-82
2021/06/22 00:31:12;;;;;;;;;;;13.50;99.90;;;;;;5036434;28;20219;-83
2021/06/22 00:33:38;;;;;;;;;;;13.50;99.90;;;;;;5029841;28;20338;-83
2021/06/22 00:36:04;;;;;;;;;;;13.50;99.90;;;;;;5032464;28;19957;-82
2021/06/22 00:38:30;;;;;;;;;;;13.50;99.90;;;;;;5032402;28;19905;-83
2021/06/22 00:40:55;;;;;;;;;;;13.50;99.90;;;;;;5034713;28;19913;-83
2021/06/22 00:43:21;;;;;;;;;;;13.60;99.90;;;;;;5042341;28;19917;-83
2021/06/22 00:45:47;;;;;;;;;;;13.60;99.90;;;;;;5034708;28;19916;-84
2021/06/22 00:48:12;;;;;;;;;;;13.60;99.90;;;;;;5041881;28;19909;-84
2021/06/22 00:50:38;;;;;;;;;;;13.60;99.90;;;;;;5034741;28;19996;-84
2021/06/22 00:53:06;;;;;;;;;;;13.60;99.90;;;;;;5042750;28;19929;-83
2021/06/22 00:55:33;;;;;;;;;;;13.60;99.90;;;;;;5054016;28;19966;-83
2021/06/22 00:57:59;;;;;;;;;;;13.60;99.90;;;;;;5032843;28;19920;-84
2021/06/22 01:00:25;;;;;;;;;;;13.60;99.90;;;;;;5031524;28;19916;-85
2021/06/22 01:02:52;;;;;;;;;;;13.50;99.90;;;;;;5044912;28;19909;-84
2021/06/22 01:05:17;;;;;;;;;;;13.50;99.90;;;;;;5046048;28;19913;-84
2021/06/22 01:07:43;;;;;;;;;;;13.50;99.90;;;;;;5034936;28;19919;-85
2021/06/22 01:10:09;;;;;;;;;;;13.50;99.90;;;;;;5034868;28;20211;-85
2021/06/22 01:12:35;;;;;;;;;;;13.50;99.90;;;;;;5035416;28;19909;-80
2021/06/22 01:15:00;;;;;;;;;;;13.50;99.90;;;;;;5037479;28;19920;-83
2021/06/22 01:17:27;;;;;;;;;;;13.40;99.90;;;;;;5051150;28;20000;-83
2021/06/22 01:19:53;;;;;;;;;;;13.40;99.90;;;;;;5038414;28;19955;-83
2021/06/22 01:22:18;;;;;;;;;;;13.40;99.90;;;;;;5043561;28;21486;-84
2021/06/22 01:24:44;;;;;;;;;;;13.40;99.90;;;;;;5034578;28;19957;-81
2021/06/22 01:27:10;;;;;;;;;;;13.40;99.90;;;;;;5033898;28;19908;-83
2021/06/22 01:29:35;;;;;;;;;;;13.50;99.90;;;;;;5029955;28;20230;-82
2021/06/22 01:32:01;;;;;;;;;;;13.50;99.90;;;;;;5042198;28;19920;-83
2021/06/22 01:34:29;;;;;;;;;;;13.50;99.90;;;;;;5037171;28;19916;-82
2021/06/22 01:36:55;;;;;;;;;;;13.50;99.90;;;;;;5037717;28;19917;-81
2021/06/22 01:39:21;;;;;;;;;;;13.60;99.90;;;;;;5038999;28;19917;-82
2021/06/22 01:41:46;;;;;;;;;;;13.60;99.90;;;;;;5025722;28;19916;-81
2021/06/22 01:44:12;;;;;;;;;;;13.50;99.90;;;;;;5040060;28;20044;-80
2021/06/22 01:46:38;;;;;;;;;;;13.40;99.90;;;;;;5037814;28;19931;-81
2021/06/22 01:49:04;;;;;;;;;;;13.40;99.90;;;;;;5043489;28;19916;-83
2021/06/22 01:51:29;;;;;;;;;;;13.30;99.90;;;;;;5063273;28;19916;-82
2021/06/22 01:53:56;;;;;;;;;;;13.40;99.90;;;;;;5040827;28;19909;-81
2021/06/22 01:56:22;;;;;;;;;;;13.40;99.90;;;;;;5031657;28;20331;-82
2021/06/22 01:58:48;;;;;;;;;;;13.40;99.90;;;;;;5046022;28;20041;-81
2021/06/22 02:01:14;;;;;;;;;;;13.40;99.90;;;;;;5028680;28;20281;-82
2021/06/22 02:03:39;;;;;;;;;;;13.40;99.90;;;;;;5037859;28;19908;-81
2021/06/22 02:06:05;;;;;;;;;;;13.40;99.90;;;;;;5027658;28;19944;-81
2021/06/22 02:08:30;;;;;;;;;;;13.40;99.90;;;;;;5043801;28;19920;-82
2021/06/22 02:10:56;;;;;;;;;;;13.40;99.90;;;;;;5030537;28;19959;-81
2021/06/22 02:13:22;;;;;;;;;;;13.40;99.90;;;;;;5043349;28;20006;-82
2021/06/22 02:15:47;;;;;;;;;;;13.40;99.90;;;;;;5044613;28;19913;-81
2021/06/22 02:18:13;;;;;;;;;;;13.30;99.90;;;;;;5051685;28;19913;-82
2021/06/22 02:20:39;;;;;;;;;;;13.30;99.90;;;;;;5046274;28;19916;-83
2021/06/22 02:23:05;;;;;;;;;;;13.30;99.90;;;;;;5056625;28;20310;-83
2021/06/22 02:25:31;;;;;;;;;;;13.30;99.90;;;;;;5036169;28;19913;-83
2021/06/22 02:28:00;;;;;;;;;;;13.40;99.90;;;;;;5037758;28;19971;-83
2021/06/22 02:30:25;;;;;;;;;;;13.40;99.90;;;;;;5038464;28;19905;-83
2021/06/22 02:32:51;;;;;;;;;;;13.40;99.90;;;;;;5037594;28;19920;-82
2021/06/22 02:35:16;;;;;;;;;;;13.50;99.90;;;;;;5044433;28;19962;-82
2021/06/22 02:37:42;;;;;;;;;;;13.50;99.90;;;;;;5030442;28;19959;-83
2021/06/22 02:40:09;;;;;;;;;;;13.40;99.90;;;;;;5034335;28;20308;-83
2021/06/22 02:42:35;;;;;;;;;;;13.50;99.90;;;;;;5034374;28;19909;-83
2021/06/22 02:45:00;;;;;;;;;;;13.50;99.90;;;;;;5043446;28;19920;-82
2021/06/22 02:47:26;;;;;;;;;;;13.50;99.90;;;;;;5035951;28;19911;-84
2021/06/22 02:49:52;;;;;;;;;;;13.50;99.90;;;;;;5036389;28;19916;-83
2021/06/22 02:52:17;;;;;;;;;;;13.50;99.90;;;;;;5050268;28;19919;-86
2021/06/22 02:54:43;;;;;;;;;;;13.50;99.90;;;;;;5032848;28;20002;-81
2021/06/22 02:57:09;;;;;;;;;;;13.50;99.90;;;;;;5045628;28;19921;-84
2021/06/22 02:59:36;;;;;;;;;;;13.50;99.90;;;;;;5051274;28;19916;-82
2021/06/22 03:02:02;;;;;;;;;;;13.50;99.90;;;;;;5052103;28;19913;-84
2021/06/22 03:04:28;;;;;;;;;;;13.50;99.90;;;;;;5036363;28;19909;-82
2021/06/22 03:06:53;;;;;;;;;;;13.60;99.90;;;;;;5039309;28;20300;-81
2021/06/22 03:09:19;;;;;;;;;;;13.60;99.90;;;;;;5043148;28;19944;-83
2021/06/22 03:11:44;;;;;;;;;;;13.60;99.90;;;;;;5042958;28;20274;-80
2021/06/22 03:14:10;;;;;;;;;;;13.60;99.90;;;;;;5037070;28;19912;-83
2021/06/22 03:16:36;;;;;;;;;;;13.60;99.90;;;;;;5044656;28;20255;-82
2021/06/22 03:19:01;;;;;;;;;;;13.60;99.90;;;;;;5034632;28;19916;-83
2021/06/22 03:21:27;;;;;;;;;;;13.60;99.90;;;;;;5055884;28;19995;-83
2021/06/22 03:23:52;;;;;;;;;;;13.60;99.90;;;;;;5068202;28;19908;-83
2021/06/22 03:26:18;;;;;;;;;;;13.60;99.90;;;;;;5062118;28;20373;-82
2021/06/22 03:28:43;;;;;;;;;;;13.60;99.90;;;;;;5055138;28;19913;-82
2021/06/22 03:31:09;;;;;;;;;;;13.60;99.90;;;;;;5053645;28;19963;-82
2021/06/22 03:33:35;;;;;;;;;;;13.60;99.90;;;;;;5066599;28;20317;-80
2021/06/22 03:36:00;;;;;;;;;;;13.70;99.90;;;;;;5050216;28;20365;-81
2021/06/22 03:38:26;;;;;;;;;;;13.70;99.90;;;;;;5036769;28;19936;-82
2021/06/22 03:40:51;;;;;;;;;;;13.70;99.90;;;;;;5056041;28;19908;-82
2021/06/22 03:43:19;;;;;;;;;;;13.70;99.90;;;;;;5058827;28;19943;-82
2021/06/22 03:45:45;;;;;;;;;;;13.70;99.90;;;;;;5064354;28;19912;-82
2021/06/22 03:48:10;;;;;;;;;;;13.70;99.90;;;;;;5034352;28;19912;-83
2021/06/22 03:50:36;;;;;;;;;;;13.80;99.90;;;;;;5059070;28;19955;-82
2021/06/22 03:53:02;;;;;;;;;;;13.70;99.90;;;;;;5055099;28;19905;-82
2021/06/22 03:55:29;;;;;;;;;;;13.70;99.90;;;;;;5038737;28;19915;-80
2021/06/22 03:57:58;;;;;;;;;;;13.70;99.90;;;;;;5039325;28;19923;-82
2021/06/22 04:00:24;;;;;;;;;;;13.70;99.90;;;;;;5037476;28;21960;-81
2021/06/22 04:02:50;;;;;;;;;;;13.70;99.90;;;;;;5052541;28;19912;-82
2021/06/22 04:05:16;;;;;;;;;;;13.80;99.90;;;;;;5032565;28;20188;-82
2021/06/22 04:07:42;;;;;;;;;;;13.80;99.90;;;;;;5035441;28;19916;-79
2021/06/22 04:10:08;;;;;;;;;;;13.80;99.90;;;;;;5050752;28;19913;-80
2021/06/22 04:12:34;;;;;;;;;;;13.80;99.90;;;;;;5064069;28;20311;-82
2021/06/22 04:14:59;;;;;;;;;;;13.80;99.90;;;;;;5047933;28;19908;-82
2021/06/22 04:17:25;;;;;;;;;;;13.80;99.90;;;;;;5047060;28;19995;-81
2021/06/22 04:19:50;;;;;;;;;;;13.90;99.90;;;;;;5053634;28;19978;-81
2021/06/22 04:22:16;;;;;;;;;;;13.90;99.90;;;;;;5047994;28;19917;-79
2021/06/22 04:24:42;;;;;;;;;;;13.90;99.90;;;;;;5048852;28;19970;-82
2021/06/22 04:27:07;;;;;;;;;;;13.90;99.90;;;;;;5068558;28;20192;-82
2021/06/22 04:29:33;;;;;;;;;;;13.90;99.90;;;;;;5066063;28;19909;-81
2021/06/22 04:31:58;;;;;;;;;;;13.90;99.90;;;;;;5063246;28;19916;-81
2021/06/22 04:34:24;;;;;;;;;;;13.90;99.90;;;;;;5064901;28;19936;-80
2021/06/22 04:36:50;;;;;;;;;;;13.80;99.90;;;;;;5036664;28;19923;-80
2021/06/22 04:39:15;;;;;;;;;;;13.90;99.90;;;;;;5051230;28;19969;-81
2021/06/22 04:41:41;;;;;;;;;;;13.90;99.90;;;;;;5046647;28;20326;-81
2021/06/22 04:44:07;;;;;;;;;;;13.90;99.90;;;;;;5063262;28;19911;-81
2021/06/22 04:46:32;;;;;;;;;;;13.90;99.90;;;;;;5054580;28;19915;-82
2021/06/22 04:48:58;;;;;;;;;;;13.90;99.90;;;;;;5052880;28;19995;-82
2021/06/22 04:51:23;;;;;;;;;;;13.90;99.90;;;;;;5056906;28;19912;-82
2021/06/22 04:53:49;;;;;;;;;;;14.00;99.90;;;;;;5041940;28;19917;-81
2021/06/22 04:56:15;;;;;;;;;;;14.00;99.90;;;;;;5046051;28;19913;-81
2021/06/22 04:58:40;;;;;;;;;;;14.00;99.90;;;;;;5058397;28;19930;-83
2021/06/22 05:01:06;;;;;;;;;;;13.90;99.90;;;;;;5050220;28;20281;-80
2021/06/22 05:03:35;;;;;;;;;;;13.90;99.90;;;;;;5060717;28;19912;-81
2021/06/22 05:06:00;;;;;;;;;;;13.90;99.90;;;;;;5044709;28;20465;-81
2021/06/22 05:08:26;;;;;;;;;;;13.90;99.90;;;;;;5064931;28;20007;-79
2021/06/22 05:10:52;;;;;;;;;;;13.90;99.90;;;;;;5048235;28;19908;-84
2021/06/22 05:13:18;;;;;;;;;;;13.90;99.90;;;;;;5068703;28;19916;-80
2021/06/22 05:15:47;;;;;;;;;;;13.90;99.90;;;;;;5081242;28;20183;-80
2021/06/22 05:18:12;;;;;;;;;;;13.90;99.90;;;;;;5047087;28;20003;-79
2021/06/22 05:20:38;;;;;;;;;;;13.90;99.90;;;;;;5045040;28;19920;-82
2021/06/22 05:23:03;;;;;;;;;;;13.90;99.90;;;;;;5061453;28;19965;-80
2021/06/22 05:25:29;;;;;;;;;;;14.00;99.90;;;;;;5074067;28;19912;-82
2021/06/22 05:27:55;;;;;;;;;;;14.00;99.90;;;;;;5046063;28;19958;-79
2021/06/22 05:30:20;;;;;;;;;;;13.90;99.90;;;;;;5061609;28;19912;-80
2021/06/22 05:32:46;;;;;;;;;;;14.00;99.90;;;;;;5065715;28;19920;-79
2021/06/22 05:35:12;;;;;;;;;;;13.90;99.90;;;;;;5064477;28;19966;-82
2021/06/22 05:37:38;;;;;;;;;;;14.00;99.90;;;;;;5062773;28;19920;-81
2021/06/22 05:40:04;;;;;;;;;;;14.00;99.90;;;;;;5064379;28;19962;-79
2021/06/22 05:42:30;;;;;;;;;;;14.00;99.90;;;;;;5046898;28;20056;-79
2021/06/22 05:44:56;;;;;;;;;;;14.00;99.90;;;;;;5062718;28;19952;-81
2021/06/22 05:47:22;;;;;;;;;;;14.10;99.90;;;;;;5039454;28;20317;-81
2021/06/22 05:49:47;;;;;;;;;;;14.10;99.90;;;;;;5040319;28;19913;-82
2021/06/22 05:52:13;;;;;;;;;;;14.10;99.90;;;;;;5057125;28;19924;-82
2021/06/22 05:54:38;;;;;;;;;;;14.10;99.90;;;;;;5045597;28;19963;-80
2021/06/22 05:57:05;;;;;;;;;;;14.10;99.90;;;;;;5072199;28;19923;-78
2021/06/22 05:59:31;;;;;;;;;;;14.20;99.90;;;;;;5056905;28;19917;-81
2021/06/22 06:01:57;;;;;;;;;;;14.20;99.90;;;;;;5060528;28;19915;-79
2021/06/22 06:04:23;;;;;;;;;;;14.30;99.90;;;;;;5043392;28;19913;-80
2021/06/22 06:06:49;;;;;;;;;;;14.30;99.90;;;;;;5063516;28;19912;-79
2021/06/22 06:09:15;;;;;;;;;;;14.30;99.90;;;;;;5065907;28;19912;-80
2021/06/22 06:11:42;;;;;;;;;;;14.30;99.90;;;;;;5040818;28;19918;-78
2021/06/22 06:14:07;;;;;;;;;;;14.30;99.90;;;;;;5058605;28;19915;-79
2021/06/22 06:16:33;;;;;;;;;;;14.30;99.90;;;;;;5069982;28;19917;-80
2021/06/22 06:18:58;;;;;;;;;;;14.40;99.90;;;;;;5048811;28;19913;-79
2021/06/22 06:21:25;;;;;;;;;;;14.40;99.90;;;;;;5056020;28;20172;-78
2021/06/22 06:23:51;;;;;;;;;;;14.40;99.90;;;;;;5055987;28;20221;-79
2021/06/22 06:26:21;;;;;;;;;;;14.40;99.90;;;;;;5055293;28;19904;-80
2021/06/22 06:28:50;;;;;;;;;;;14.40;99.90;;;;;;5035496;28;19952;-80
2021/06/22 06:31:16;;;;;;;;;;;14.50;99.90;;;;;;5069442;28;20451;-79
2021/06/22 06:33:42;;;;;;;;;;;14.50;99.90;;;;;;5038023;28;19912;-81
2021/06/22 06:36:07;;;;;;;;;;;14.60;99.90;;;;;;5060777;28;19908;-77
2021/06/22 06:38:33;;;;;;;;;;;14.60;99.90;;;;;;5035556;28;19978;-77
2021/06/22 06:40:58;;;;;;;;;;;14.70;99.90;;;;;;5060262;28;19909;-79
2021/06/22 06:43:27;;;;;;;;;;;14.80;99.90;;;;;;5061111;28;19922;-79
2021/06/22 06:45:53;;;;;;;;;;;14.90;99.90;;;;;;5025335;28;19931;-79
2021/06/22 06:48:19;;;;;;;;;;;15.20;99.90;;;;;;5064989;28;19908;-80
2021/06/22 06:50:45;;;;;;;;;;;15.30;99.90;;;;;;5038530;28;19909;-80
2021/06/22 06:53:10;;;;;;;;;;;15.40;99.90;;;;;;5063847;28;19916;-77
2021/06/22 06:55:41;;;;;;;;;;;15.50;99.90;;;;;;5057491;28;19943;-77
2021/06/22 06:58:06;;;;;;;;;;;15.50;99.90;;;;;;5066062;28;20306;-78
2021/06/22 07:00:33;;;;;;;;;;;15.40;99.90;;;;;;5037462;28;19916;-80
2021/06/22 07:02:59;;;;;;;;;;;15.40;99.90;;;;;;5048974;28;19909;-79
2021/06/22 07:05:25;;;;;;;;;;;15.40;99.90;;;;;;5040685;28;19908;-76
2021/06/22 07:07:51;;;;;;;;;;;15.40;99.90;;;;;;5054323;28;19916;-79
2021/06/22 07:10:18;;;;;;;;;;;15.40;99.90;;;;;;5048105;28;19908;-78
2021/06/22 07:12:44;;;;;;;;;;;15.30;99.90;;;;;;5059792;28;19995;-81
2021/06/22 07:15:10;;;;;;;;;;;15.30;99.90;;;;;;5043506;28;20000;-78
2021/06/22 07:17:35;;;;;;;;;;;15.40;99.90;;;;;;5051908;28;20007;-76
2021/06/22 07:20:02;;;;;;;;;;;15.50;99.90;;;;;;5054937;28;19995;-79
2021/06/22 07:22:28;;;;;;;;;;;15.40;99.90;;;;;;5037607;28;19920;-81
2021/06/22 07:24:53;;;;;;;;;;;15.40;99.90;;;;;;5051565;28;19909;-81
2021/06/22 07:27:19;;;;;;;;;;;15.40;99.90;;;;;;5054407;28;19943;-80
2021/06/22 07:29:45;;;;;;;;;;;15.50;99.90;;;;;;5057227;28;19927;-79
2021/06/22 07:32:11;;;;;;;;;;;15.60;99.90;;;;;;5042364;28;20378;-82
2021/06/22 07:34:36;;;;;;;;;;;15.70;99.90;;;;;;5039937;28;20326;-78
2021/06/22 07:37:06;;;;;;;;;;;15.70;99.90;;;;;;5054860;28;20303;-82
2021/06/22 07:39:33;;;;;;;;;;;15.60;99.90;;;;;;5071208;28;19962;-79
2021/06/22 07:41:59;;;;;;;;;;;15.70;99.90;;;;;;5038345;28;20279;-79
2021/06/22 07:44:26;;;;;;;;;;;15.80;99.90;;;;;;5041810;28;19966;-79
2021/06/22 07:46:55;;;;;;;;;;;15.70;99.90;;;;;;5055980;28;19916;-79
2021/06/22 07:49:21;;;;;;;;;;;15.80;99.90;;;;;;5035190;28;19912;-76
2021/06/22 07:51:47;;;;;;;;;;;15.80;99.90;;;;;;5051336;28;20210;-79
2021/06/22 07:54:14;;;;;;;;;;;15.80;99.90;;;;;;5067785;28;19909;-80
2021/06/22 07:56:39;;;;;;;;;;;15.70;99.90;;;;;;5036239;28;19966;-84
2021/06/22 07:59:05;;;;;;;;;;;15.70;99.90;;;;;;5053145;28;20355;-79
2021/06/22 08:01:31;;;;;;;;;;;15.70;99.90;;;;;;5037470;28;19915;-79
2021/06/22 08:03:56;;;;;;;;;;;15.70;99.90;;;;;;5064667;28;19909;-83
2021/06/22 08:06:22;;;;;;;;;;;15.80;99.90;;;;;;5028027;28;19947;-82
2021/06/22 08:08:47;;;;;;;;;;;15.90;99.90;;;;;;5056021;28;20207;-81
2021/06/22 08:11:13;;;;;;;;;;;16.00;99.90;;;;;;5051405;28;19916;-78
2021/06/22 08:13:38;;;;;;;;;;;15.90;99.90;;;;;;5069189;28;20299;-77
2021/06/22 08:16:04;;;;;;;;;;;15.90;99.90;;;;;;5041317;28;20076;-79
2021/06/22 08:18:32;;;;;;;;;;;15.90;99.90;;;;;;5053470;28;20687;-79
2021/06/22 08:20:58;;;;;;;;;;;15.80;99.90;;;;;;5058211;28;19913;-79
2021/06/22 08:23:23;;;;;;;;;;;16.00;99.90;;;;;;5054371;28;19908;-84
2021/06/22 08:25:49;;;;;;;;;;;16.20;99.90;;;;;;5047553;28;19912;-81
2021/06/22 08:28:15;;;;;;;;;;;16.30;99.90;;;;;;5064383;28;19913;-82
2021/06/22 08:30:40;;;;;;;;;;;16.30;99.90;;;;;;5034890;28;19931;-79
2021/06/22 08:33:07;;;;;;;;;;;16.20;99.90;;;;;;5051682;28;19999;-78
2021/06/22 08:35:33;;;;;;;;;;;16.20;99.90;;;;;;5054417;28;19908;-79
2021/06/22 08:37:59;;;;;;;;;;;16.20;99.90;;;;;;5044837;28;19916;-79
2021/06/22 08:40:24;;;;;;;;;;;16.30;99.90;;;;;;5056071;28;19912;-81
2021/06/22 08:42:50;;;;;;;;;;;16.40;99.90;;;;;;5064689;28;20592;-76
2021/06/22 08:45:17;;;;;;;;;;;16.50;99.90;;;;;;5073419;28;19916;-79
2021/06/22 08:47:43;;;;;;;;;;;16.40;99.90;;;;;;5073267;28;19908;-80
2021/06/22 08:50:10;;;;;;;;;;;16.50;99.90;;;;;;5039710;28;19905;-79
2021/06/22 08:52:36;;;;;;;;;;;16.40;99.90;;;;;;5038322;28;19913;-78
2021/06/22 08:55:04;;;;;;;;;;;16.40;99.90;;;;;;5051019;28;19951;-78
2021/06/22 08:57:30;;;;;;;;;;;16.40;99.90;;;;;;5057506;28;19920;-81
2021/06/22 08:59:55;;;;;;;;;;;16.40;99.90;;;;;;5057883;28;20004;-80
2021/06/22 09:02:25;;;;;;;;;;;16.40;99.90;;;;;;5038886;28;19912;-80
2021/06/22 09:04:58;;;;;;;;;;;16.60;99.90;;;;;;5057598;28;20207;-81
2021/06/22 09:07:42;;;;;;;;;;;16.60;99.90;;;;;;5040214;28;19915;-80
2021/06/22 09:10:08;;;;;;;;;;;16.80;99.90;;;;;;5053881;28;19920;-79
2021/06/22 09:12:34;;;;;;;;;;;16.80;99.90;;;;;;5072790;28;20203;-78
2021/06/22 09:14:59;;;;;;;;;;;17.00;99.90;;;;;;5056180;28;19912;-80
2021/06/22 09:17:35;;;;;;;;;;;17.10;99.90;;;;;;5065998;28;19916;-77
2021/06/22 09:20:00;;;;;;;;;;;17.20;99.90;;;;;;5044970;28;19916;-82
2021/06/22 09:22:27;;;;;;;;;;;17.40;99.90;;;;;;5057999;28;19917;-78
2021/06/22 09:25:09;;;;;;;;;;;17.50;99.90;;;;;;5056484;28;19916;-84
2021/06/22 09:27:53;;;;;;;;;;;17.80;99.90;;;;;;5067608;28;19913;-77
2021/06/22 09:30:38;;;;;;;;;;;17.80;99.90;;;;;;5051350;28;19909;-83
2021/06/22 09:33:17;;;;;;;;;;;17.70;99.90;;;;;;5055515;28;19912;-81
2021/06/22 09:35:44;;;;;;;;;;;17.40;99.90;;;;;;5057849;28;19963;-83
2021/06/22 09:38:09;;;;;;;;;;;17.00;99.90;;;;;;5058934;28;20303;-80
2021/06/22 09:40:35;;;;;;;;;;;16.90;99.90;;;;;;5038227;28;19915;-78
2021/06/22 09:43:00;;;;;;;;;;;17.00;99.90;;;;;;5053953;28;20007;-79
2021/06/22 09:45:28;;;;;;;;;;;17.00;99.90;;;;;;5049811;28;20319;-78
2021/06/22 09:47:58;;;;;;;;;;;16.90;99.90;;;;;;5063567;28;19917;-82
2021/06/22 09:50:56;;;;;;;;;;;16.70;99.90;;;;;;5071907;28;19909;-80
2021/06/22 09:53:22;;;;;;;;;;;16.50;99.90;;;;;;4976340;28;20321;-78
2021/06/22 09:55:47;;;;;;;;;;;16.50;99.90;;;;;;4975066;28;19925;-80
2021/06/22 09:58:13;;;;;;;;;;;16.30;99.90;;;;;;4978282;28;20467;-78
2021/06/22 10:00:39;;;;;;;;;;;16.20;99.90;;;;;;4975895;28;20249;-81
2021/06/22 10:03:05;;;;;;;;;;;16.20;99.90;;;;;;4979751;28;19909;-77
2021/06/22 10:05:31;;;;;;;;;;;16.10;99.90;;;;;;4977623;28;19997;-82
2021/06/22 10:07:57;;;;;;;;;;;15.90;99.90;;;;;;4975039;28;20002;-75
2021/06/22 10:10:34;;;;;;;;;;;15.80;99.90;;;;;;4958732;28;20284;-83
2021/06/22 10:12:59;;;;;;;;;;;15.80;99.90;;;;;;4991020;28;20344;-76
2021/06/22 10:15:25;;;;;;;;;;;15.90;99.90;;;;;;4978769;28;19917;-76
2021/06/22 10:17:50;;;;;;;;;;;15.90;99.90;;;;;;4974777;28;20337;-83
2021/06/22 10:20:16;;;;;;;;;;;15.90;99.90;;;;;;4974718;28;20194;-77
2021/06/22 10:22:43;;;;;;;;;;;16.10;99.90;;;;;;4972481;28;19909;-80
2021/06/22 10:25:10;;;;;;;;;;;16.10;99.90;;;;;;4978888;28;19914;-82
2021/06/22 10:27:36;;;;;;;;;;;16.20;99.90;;;;;;4973169;28;19917;-82
2021/06/22 10:30:03;;;;;;;;;;;16.30;99.90;;;;;;5031754;28;19916;-78
2021/06/22 10:32:30;;;;;;;;;;;16.20;99.90;;;;;;5034475;28;19932;-75
2021/06/22 10:35:00;;;;;;;;;;;16.20;99.90;;;;;;5031994;28;20313;-79
2021/06/22 10:37:25;;;;;;;;;;;16.10;99.90;;;;;;5033181;28;19978;-80
2021/06/22 10:39:51;;;;;;;;;;;16.10;99.90;;;;;;5038156;28;19908;-82
2021/06/22 10:42:17;;;;;;;;;;;16.00;99.90;;;;;;5036720;28;19912;-78
2021/06/22 10:45:03;;;;;;;;;;;16.00;99.90;;;;;;5028159;28;19909;-79
2021/06/22 10:47:30;;;;;;;;;;;16.00;99.90;;;;;;5032698;28;20351;-82
2021/06/22 10:49:56;;;;;;;;;;;16.10;99.90;;;;;;5034528;28;19913;-78
2021/06/22 10:52:40;;;;;;;;;;;16.20;99.90;;;;;;5045982;28;19940;-80
2021/06/22 10:55:06;;;;;;;;;;;16.20;99.90;;;;;;5045440;28;19977;-78
2021/06/22 10:57:50;;;;;;;;;;;16.30;99.90;;;;;;5038698;28;19913;-79
2021/06/22 11:00:16;;;;;;;;;;;16.20;99.90;;;;;;5048928;28;20354;-75
2021/06/22 11:03:00;;;;;;;;;;;16.30;99.90;;;;;;5030550;28;19916;-76
2021/06/22 11:05:26;;;;;;;;;;;16.40;99.90;;;;;;5033616;28;19915;-77
2021/06/22 11:08:07;;;;;;;;;;;16.50;99.90;;;;;;5038859;28;19940;-80
2021/06/22 11:10:32;;;;;;;;;;;16.60;99.90;;;;;;5046311;28;19909;-77
2021/06/22 11:12:59;;;;;;;;;;;16.70;99.90;;;;;;5024401;28;19909;-79
2021/06/22 11:15:45;;;;;;;;;;;16.60;99.90;;;;;;5045393;28;19964;-80
2021/06/22 11:18:15;;;;;;;;;;;16.60;99.90;;;;;;5031149;28;19924;-79
2021/06/22 11:20:42;;;;;;;;;;;16.70;99.90;;;;;;5053816;28;20303;-81
2021/06/22 11:23:08;;;;;;;;;;;16.70;99.90;;;;;;5053237;28;20378;-79
2021/06/22 11:25:53;;;;;;;;;;;16.80;99.90;;;;;;5031554;28;20007;-81
2021/06/22 11:28:19;;;;;;;;;;;16.90;99.90;;;;;;5048004;28;19948;-80
2021/06/22 11:31:05;;;;;;;;;;;16.90;99.90;;;;;;5059304;28;19935;-75
2021/06/22 11:33:32;;;;;;;;;;;16.90;99.90;;;;;;5040208;28;19913;-80
2021/06/22 11:36:16;;;;;;;;;;;16.90;99.90;;;;;;5043810;28;19954;-77
2021/06/22 11:38:43;;;;;;;;;;;16.90;99.90;;;;;;5043928;28;19928;-81
2021/06/22 11:41:12;;;;;;;;;;;17.00;99.90;;;;;;5046586;28;19909;-81
2021/06/22 11:43:38;;;;;;;;;;;17.00;99.90;;;;;;5055252;28;19963;-79
2021/06/22 11:46:22;;;;;;;;;;;17.00;99.90;;;;;;5055274;28;19955;-78
2021/06/22 11:48:58;;;;;;;;;;;17.00;99.90;;;;;;5048826;28;19917;-73
2021/06/22 11:51:42;;;;;;;;;;;16.90;99.90;;;;;;5056647;28;20633;-80
2021/06/22 11:54:07;;;;;;;;;;;16.80;99.90;;;;;;5038722;28;19951;-78
2021/06/22 11:56:34;;;;;;;;;;;16.80;99.90;;;;;;5062612;28;19952;-81
2021/06/22 11:59:03;;;;;;;;;;;16.80;99.90;;;;;;5056420;28;19956;-78
2021/06/22 12:01:28;;;;;;;;;;;17.00;99.90;;;;;;5035850;28;19956;-80
2021/06/22 12:03:54;;;;;;;;;;;16.90;99.90;;;;;;5056300;28;20329;-77
2021/06/22 12:06:24;;;;;;;;;;;16.80;99.90;;;;;;5037959;28;19908;-78
2021/06/22 12:08:50;;;;;;;;;;;16.90;99.90;;;;;;5043957;28;19931;-79
2021/06/22 12:11:28;;;;;;;;;;;16.70;99.90;;;;;;5058042;28;19919;-76
2021/06/22 12:13:54;;;;;;;;;;;16.80;99.90;;;;;;5057528;28;20145;-78
2021/06/22 12:16:20;;;;;;;;;;;16.90;99.90;;;;;;5061504;28;19916;-74
2021/06/22 12:18:45;;;;;;;;;;;16.90;99.90;;;;;;5052672;28;20291;-78
2021/06/22 12:21:11;;;;;;;;;;;16.90;99.90;;;;;;5042330;28;19919;-80
2021/06/22 12:23:40;;;;;;;;;;;17.00;99.90;;;;;;5050671;28;19992;-78
2021/06/22 12:26:06;;;;;;;;;;;17.20;99.90;;;;;;5041128;28;20422;-81
2021/06/22 12:28:32;;;;;;;;;;;17.40;99.90;;;;;;5040463;28;19909;-79
2021/06/22 12:30:58;;;;;;;;;;;17.40;99.90;;;;;;5041192;28;19919;-83
2021/06/22 12:33:28;;;;;;;;;;;17.40;99.90;;;;;;5041937;28;19917;-80
2021/06/22 12:35:54;;;;;;;;;;;17.10;99.90;;;;;;5041451;28;20003;-79
2021/06/22 12:38:21;;;;;;;;;;;16.90;99.90;;;;;;5040284;28;19924;-74
2021/06/22 12:40:55;;;;;;;;;;;16.80;99.90;;;;;;5045342;28;19909;-80
2021/06/22 12:43:39;;;;;;;;;;;16.70;99.90;;;;;;5032363;28;19914;-81
2021/06/22 12:46:04;;;;;;;;;;;16.70;99.90;;;;;;5034222;28;20378;-86
2021/06/22 12:48:30;;;;;;;;;;;16.80;99.90;;;;;;5033830;28;19905;-81
2021/06/22 12:50:56;;;;;;;;;;;16.90;99.90;;;;;;5030237;28;19917;-76
2021/06/22 12:53:22;;;;;;;;;;;17.00;99.90;;;;;;5024747;28;19910;-75
2021/06/22 12:55:48;;;;;;;;;;;17.10;99.90;;;;;;5046343;28;20255;-77
2021/06/22 12:58:14;;;;;;;;;;;17.00;99.90;;;;;;5033529;28;19913;-77
2021/06/22 13:00:42;;;;;;;;;;;16.90;99.90;;;;;;5023524;28;19916;-76
2021/06/22 13:03:08;;;;;;;;;;;16.90;99.90;;;;;;5031781;28;20219;-77
2021/06/22 13:05:36;;;;;;;;;;;16.80;99.90;;;;;;5031315;28;19963;-78
2021/06/22 13:08:01;;;;;;;;;;;16.60;99.90;;;;;;5050451;28;19919;-79
2021/06/22 13:10:27;;;;;;;;;;;16.50;99.90;;;;;;5039500;28;20199;-86
2021/06/22 13:12:53;;;;;;;;;;;16.60;99.90;;;;;;5032288;28;19909;-78
2021/06/22 13:15:28;;;;;;;;;;;16.50;99.90;;;;;;5031818;28;20019;-74
2021/06/22 13:17:54;;;;;;;;;;;16.50;99.90;;;;;;5027546;28;19913;-76
2021/06/22 13:20:22;;;;;;;;;;;16.50;99.90;;;;;;5035436;28;20258;-77
2021/06/22 13:22:48;;;;;;;;;;;16.60;99.90;;;;;;5052118;28;19996;-78
2021/06/22 13:25:16;;;;;;;;;;;16.50;99.90;;;;;;5035228;28;19936;-76
2021/06/22 13:27:46;;;;;;;;;;;16.50;99.90;;;;;;5059887;28;19915;-76
2021/06/22 13:30:13;;;;;;;;;;;16.50;99.90;;;;;;5048774;28;19908;-77
2021/06/22 13:32:43;;;;;;;;;;;16.60;99.90;;;;;;5060322;28;20207;-78
2021/06/22 13:35:09;;;;;;;;;;;16.60;99.90;;;;;;5065196;28;19969;-77
2021/06/22 13:37:50;;;;;;;;;;;16.60;99.90;;;;;;5064285;28;19924;-79
2021/06/22 13:40:16;;;;;;;;;;;16.50;99.90;;;;;;5066258;28;19920;-80
2021/06/22 13:42:41;;;;;;;;;;;16.60;99.90;;;;;;5065759;28;20003;-76
2021/06/22 13:45:11;;;;;;;;;;;16.60;99.90;;;;;;5065599;28;19915;-79
2021/06/22 13:47:41;;;;;;;;;;;16.70;99.90;;;;;;5065672;28;19917;-79
2021/06/22 13:50:24;;;;;;;;;;;16.80;99.90;;;;;;5048512;28;20367;-75
2021/06/22 13:52:49;;;;;;;;;;;16.80;99.90;;;;;;5071796;28;19938;-76
2021/06/22 13:58:04;;;;;;;;;;;16.70;99.90;;;;;;5065853;28;20730;-79
2021/06/22 14:00:30;;;;;;;;;;;16.70;99.90;;;;;;5066100;28;19916;-77
2021/06/22 14:02:55;;;;;;;;;;;16.60;99.90;;;;;;5063239;28;20010;-80
2021/06/22 14:05:21;;;;;;;;;;;16.60;99.90;;;;;;5047051;28;19931;-77
2021/06/22 14:07:46;;;;;;;;;;;16.80;99.90;;;;;;5063943;28;19935;-79
2021/06/22 14:10:12;;;;;;;;;;;16.90;99.90;;;;;;5064771;28;19948;-77
2021/06/22 14:12:38;;;;;;;;;;;16.90;99.90;;;;;;5063675;28;19916;-76
2021/06/22 14:15:04;;;;;;;;;;;16.90;99.90;;;;;;5063505;28;20287;-78
2021/06/22 14:17:30;;;;;;;;;;;16.90;99.90;;;;;;5064002;28;19920;-77
2021/06/22 14:19:55;;;;;;;;;;;16.80;99.90;;;;;;5067203;28;19912;-76